Time;durP1;ratioP1;P1;durP2;ratioP2;P2;SDS_P1;SDS_P2;PMS_P1;PMS_P2;Temp;Humidity;BMP_temperature;BMP_pressure;BME280_temperature;BME280_humidity;BME280_pressure;Samples;Min_cycle;Max_cycle;Signal;HPM_P1;HPM_P2
2023/05/24 00:02:12;;;;;;;0.40;0.40;;;21.40;66.40;;;21.60;50.43;94911.72;5075477;28;20237;-33
2023/05/24 00:04:40;;;;;;;0.50;0.50;;;21.40;66.40;;;21.59;50.58;94907.47;5075369;28;20221;-33
2023/05/24 00:07:08;;;;;;;0.43;0.43;;;21.40;66.50;;;21.58;50.49;94908.50;5074966;28;20195;-33
2023/05/24 00:09:35;;;;;;;0.50;0.50;;;21.40;66.50;;;21.56;50.32;94905.28;5075026;28;20222;-33
2023/05/24 00:12:02;;;;;;;0.45;0.45;;;21.30;66.40;;;21.55;50.22;94903.69;5074781;28;20235;-33
2023/05/24 00:14:29;;;;;;;0.40;0.40;;;21.30;66.50;;;21.53;50.70;94898.63;5075559;28;20649;-33
2023/05/24 00:16:56;;;;;;;0.40;0.40;;;21.30;66.50;;;21.51;50.44;94903.41;5074765;28;20261;-33
2023/05/24 00:19:24;;;;;;;0.50;0.50;;;21.30;66.50;;;21.51;50.47;94895.41;5075425;28;20196;-33
2023/05/24 00:21:51;;;;;;;0.40;0.40;;;21.30;66.50;;;21.50;50.51;94895.66;5075150;28;20277;-33
2023/05/24 00:24:18;;;;;;;0.43;0.43;;;21.30;66.50;;;21.49;50.32;94894.84;5075183;28;20596;-33
2023/05/24 00:26:47;;;;;;;0.47;0.47;;;21.30;66.50;;;21.47;50.70;94902.34;5074911;28;20205;-33
2023/05/24 00:29:14;;;;;;;0.47;0.47;;;21.30;66.50;;;21.48;50.90;94897.78;5074843;28;20204;-33
2023/05/24 00:31:41;;;;;;;0.40;0.40;;;21.30;66.50;;;21.44;50.70;94895.63;5074815;28;20232;-33
2023/05/24 00:34:09;;;;;;;0.50;0.50;;;21.30;66.60;;;21.47;50.37;94905.00;5073848;28;20696;-33
2023/05/24 00:36:37;;;;;;;0.45;0.45;;;21.20;66.50;;;21.45;50.40;94901.78;5074498;28;20681;-33
2023/05/24 00:39:04;;;;;;;0.40;0.40;;;21.20;66.40;;;21.44;50.48;94902.84;5074773;28;20235;-33
2023/05/24 00:41:32;;;;;;;0.40;0.40;;;21.20;66.40;;;21.42;50.25;94905.78;5075019;28;20196;-33
2023/05/24 00:43:59;;;;;;;0.50;0.50;;;21.20;66.40;;;21.41;50.81;94906.84;5074744;28;20265;-33
2023/05/24 00:46:34;;;;;;;0.40;0.40;;;21.20;66.50;;;21.39;50.45;94898.28;5073544;28;20200;-33
2023/05/24 00:49:02;;;;;;;0.40;0.40;;;21.10;66.40;;;21.40;50.76;94904.44;5074611;28;20642;-33
2023/05/24 00:51:31;;;;;;;0.40;0.40;;;21.20;66.50;;;21.37;50.58;94900.44;5075317;28;20286;-33
2023/05/24 00:53:58;;;;;;;0.40;0.40;;;21.20;66.50;;;21.36;50.50;94901.47;5077758;28;20703;-33
2023/05/24 00:56:26;;;;;;;0.40;0.40;;;21.10;66.50;;;21.36;50.71;94898.81;5077485;28;20242;-33
2023/05/24 00:58:55;;;;;;;0.40;0.40;;;21.20;66.60;;;21.36;50.77;94906.00;5077498;28;20190;-33
2023/05/24 01:01:29;;;;;;;0.50;0.50;;;21.10;66.50;;;21.35;50.57;94896.38;5078485;28;20265;-33
2023/05/24 01:03:58;;;;;;;0.50;0.50;;;21.10;66.50;;;21.34;50.78;94894.81;5078741;28;20249;-33
2023/05/24 01:06:27;;;;;;;0.50;0.50;;;21.10;66.50;;;21.35;50.57;94896.38;5078337;28;20259;-33
2023/05/24 01:09:28;;;;;;;0.40;0.40;;;21.10;66.50;;;21.32;50.49;94908.38;5078196;28;20685;-33
2023/05/24 01:12:26;;;;;;;0.40;0.40;;;21.10;66.60;;;21.30;50.37;94907.03;5077167;28;20219;-33
2023/05/24 01:15:26;;;;;;;0.40;0.40;;;21.10;66.60;;;21.27;50.84;94901.16;5078815;28;20595;-33
2023/05/24 01:18:16;;;;;;;0.50;0.50;;;21.10;66.50;;;21.28;50.68;94907.31;5047410;28;20228;-34
2023/05/24 01:20:44;;;;;;;0.40;0.40;;;21.10;66.60;;;21.27;50.48;94909.16;5078394;28;20179;-34
2023/05/24 01:23:31;;;;;;;0.43;0.43;;;21.10;66.70;;;21.26;50.76;94914.75;5077787;28;20227;-34
2023/05/24 01:26:19;;;;;;;0.50;0.50;;;21.10;66.60;;;21.25;50.88;94913.97;5078351;28;20184;-34
2023/05/24 01:28:48;;;;;;;0.40;0.40;;;21.10;66.70;;;21.24;50.51;94911.56;5076898;28;20307;-34
2023/05/24 01:31:17;;;;;;;0.40;0.40;;;21.10;66.70;;;21.23;50.95;94912.63;5077889;28;20283;-34
2023/05/24 01:33:44;;;;;;;0.40;0.40;;;21.00;67.50;;;21.22;50.92;94901.13;5060479;28;20259;-34
2023/05/24 01:36:11;;;;;;;0.43;0.43;;;21.00;66.50;;;21.22;50.71;94909.13;5077819;28;20198;-34
2023/05/24 01:38:39;;;;;;;0.40;0.40;;;21.00;66.60;;;21.22;50.94;94903.81;5077802;28;20323;-34
2023/05/24 01:41:27;;;;;;;0.50;0.50;;;21.00;66.60;;;21.20;50.94;94897.13;5076923;28;20180;-34
2023/05/24 01:44:26;;;;;;;0.40;0.40;;;21.00;66.50;;;21.18;50.80;94901.91;5076992;28;20210;-34
2023/05/24 01:47:34;;;;;;;0.50;0.50;;;20.90;66.40;;;21.16;50.58;94898.72;5077119;28;20184;-34
2023/05/24 01:50:13;;;;;;;0.40;0.40;;;21.00;66.50;;;21.15;50.93;94905.09;5077600;28;20199;-34
2023/05/24 01:52:44;;;;;;;0.40;0.40;;;21.00;66.50;;;21.15;50.59;94908.56;5076591;28;20182;-34
2023/05/24 01:55:16;;;;;;;0.40;0.40;;;21.00;66.60;;;21.15;50.78;94913.09;5077789;28;20568;-34
2023/05/24 01:57:45;;;;;;;0.50;0.50;;;20.90;66.50;;;21.15;50.93;94910.44;5077486;28;20328;-34
2023/05/24 02:00:18;;;;;;;0.40;0.40;;;21.00;66.50;;;21.14;50.81;94914.16;5059989;28;20195;-34
2023/05/24 02:02:45;;;;;;;0.57;0.57;;;20.90;66.50;;;21.13;50.45;94920.56;5077240;28;20237;-34
2023/05/24 02:05:12;;;;;;;0.52;0.52;;;20.90;66.50;;;21.11;50.57;94913.59;5059469;28;20596;-34
2023/05/24 02:07:40;;;;;;;0.40;0.40;;;20.90;66.40;;;21.11;50.38;94920.81;5077155;28;20523;-34
2023/05/24 02:10:08;;;;;;;0.40;0.40;;;20.90;66.50;;;21.09;50.72;94920.25;5077211;28;20538;-34
2023/05/24 02:12:35;;;;;;;0.50;0.50;;;20.80;66.50;;;21.07;50.73;94925.88;5077017;28;20238;-34
2023/05/24 02:15:03;;;;;;;0.50;0.50;;;20.90;66.50;;;21.05;50.80;94914.63;5077278;28;20293;-34
2023/05/24 02:17:31;;;;;;;0.50;0.50;;;20.90;66.50;;;21.05;50.76;94919.97;5076923;28;20271;-34
2023/05/24 02:19:59;;;;;;;0.50;0.50;;;20.80;66.50;;;21.04;50.82;94915.69;5076098;28;20622;-34
2023/05/24 02:22:27;;;;;;;0.47;0.47;;;20.80;66.40;;;21.03;51.00;94923.97;5077776;28;20714;-34
2023/05/24 02:24:54;;;;;;;0.40;0.40;;;20.80;66.40;;;21.01;50.65;94916.22;5076926;28;20622;-34
2023/05/24 02:27:21;;;;;;;0.40;0.40;;;20.80;66.40;;;21.00;50.37;94919.16;5076736;28;20194;-34
2023/05/24 02:29:48;;;;;;;0.43;0.43;;;20.80;66.50;;;20.99;50.49;94920.22;5076563;28;20266;-34
2023/05/24 02:32:15;;;;;;;0.45;0.45;;;20.80;66.40;;;20.98;50.55;94918.59;5075865;28;20203;-34
2023/05/24 02:34:43;;;;;;;0.40;0.40;;;20.70;66.30;;;20.95;50.41;94918.06;5076714;28;20248;-34
2023/05/24 02:37:13;;;;;;;0.50;0.50;;;20.80;66.40;;;20.94;50.46;94910.31;5075707;28;20529;-34
2023/05/24 02:39:41;;;;;;;0.50;0.50;;;20.80;66.40;;;20.93;50.81;94924.69;5075590;28;20214;-34
2023/05/24 02:42:10;;;;;;;0.60;0.60;;;20.70;66.30;;;20.90;50.98;94914.56;5077142;28;20638;-34
2023/05/24 02:44:37;;;;;;;0.40;0.40;;;20.70;66.40;;;20.90;50.79;94920.69;5076564;28;20191;-34
2023/05/24 02:47:04;;;;;;;0.40;0.40;;;20.70;66.40;;;20.90;50.44;94923.34;5075528;28;20214;-34
2023/05/24 02:49:31;;;;;;;0.50;0.50;;;20.70;66.40;;;20.90;50.50;94919.91;5076293;28;20221;-34
2023/05/24 02:51:59;;;;;;;0.40;0.40;;;20.70;66.40;;;20.90;50.56;94923.34;5076665;28;20198;-34
2023/05/24 02:54:26;;;;;;;0.50;0.50;;;20.70;66.40;;;20.89;50.52;94919.09;5076365;28;20248;-34
2023/05/24 02:56:55;;;;;;;0.50;0.50;;;20.70;66.40;;;20.89;50.34;94920.94;5075261;28;20195;-34
2023/05/24 02:59:24;;;;;;;0.60;0.60;;;20.70;66.40;;;20.87;50.52;94923.88;5076065;28;20190;-34
2023/05/24 03:01:51;;;;;;;0.40;0.40;;;20.70;66.40;;;20.86;50.41;94924.13;5075254;28;20218;-34
2023/05/24 03:04:18;;;;;;;0.50;0.50;;;20.60;66.40;;;20.85;50.81;94927.84;5075160;28;20203;-34
2023/05/24 03:06:46;;;;;;;0.57;0.57;;;20.60;66.40;;;20.84;50.52;94924.38;5075162;28;20286;-34
2023/05/24 03:09:15;;;;;;;0.50;0.50;;;20.70;66.50;;;20.83;50.59;94930.78;5074858;28;20211;-34
2023/05/24 03:11:43;;;;;;;0.40;0.40;;;20.70;66.40;;;20.82;50.49;94933.69;5074979;28;20577;-34
2023/05/24 03:14:11;;;;;;;0.50;0.50;;;20.60;66.40;;;20.81;50.67;94938.22;5075801;28;20195;-34
2023/05/24 03:16:40;;;;;;;0.40;0.40;;;20.60;66.30;;;20.79;50.86;94937.69;5074931;28;20230;-34
2023/05/24 03:19:08;;;;;;;0.50;0.50;;;20.60;66.30;;;20.80;50.47;94939.28;5075633;28;20208;-34
2023/05/24 03:21:37;;;;;;;0.50;0.50;;;20.60;66.30;;;20.78;50.76;94934.19;5074813;28;20202;-34
2023/05/24 03:24:04;;;;;;;0.40;0.40;;;20.60;67.10;;;20.76;50.46;94933.66;5074784;28;20205;-34
2023/05/24 03:26:31;;;;;;;0.40;0.40;;;20.60;66.30;;;20.75;50.34;94939.22;5074801;28;20608;-34
2023/05/24 03:28:58;;;;;;;0.40;0.40;;;20.60;66.30;;;20.73;50.94;94936.84;5074553;28;20522;-33
2023/05/24 03:31:32;;;;;;;0.40;0.40;;;20.60;66.30;;;20.70;50.59;94940.00;5074684;28;20586;-34
2023/05/24 03:34:00;;;;;;;0.40;0.40;;;20.60;66.30;;;20.70;50.69;94941.84;5076131;28;20201;-34
2023/05/24 03:36:28;;;;;;;0.50;0.50;;;20.50;66.30;;;20.70;50.43;94952.50;5074618;28;20237;-34
2023/05/24 03:38:57;;;;;;;0.40;0.40;;;20.50;66.20;;;20.66;50.41;94946.88;5075313;28;20249;-34
2023/05/24 03:41:26;;;;;;;0.40;0.40;;;20.50;66.20;;;20.65;50.47;94953.25;5058375;28;20209;-34
2023/05/24 03:43:57;;;;;;;0.40;0.40;;;20.50;66.30;;;20.63;50.91;94956.19;5074472;28;20202;-34
2023/05/24 03:46:25;;;;;;;0.50;0.50;;;20.50;66.20;;;20.64;50.76;94957.78;5074440;28;20302;-34
2023/05/24 03:48:54;;;;;;;0.50;0.50;;;20.50;66.30;;;20.63;50.35;94958.06;5074239;28;20285;-34
2023/05/24 03:51:23;;;;;;;0.40;0.40;;;20.50;66.20;;;20.61;50.32;94952.97;5075831;28;20198;-34
2023/05/24 03:53:50;;;;;;;0.50;0.50;;;20.40;66.10;;;20.60;50.29;94958.56;5074357;28;20551;-34
2023/05/24 03:56:17;;;;;;;0.40;0.40;;;20.50;66.30;;;20.59;50.36;94960.44;5074235;28;20293;-34
2023/05/24 03:58:44;;;;;;;0.47;0.47;;;20.40;66.00;;;20.58;50.15;94969.47;5075304;28;20290;-34
2023/05/24 04:01:11;;;;;;;0.40;0.40;;;20.40;66.10;;;20.57;50.31;94970.53;5075049;28;20207;-34
2023/05/24 04:03:55;;;;;;;0.40;0.40;;;20.40;66.10;;;20.57;50.73;94969.72;5075678;28;20179;-34
2023/05/24 04:06:27;;;;;;;0.40;0.40;;;20.40;66.10;;;20.56;50.66;94965.47;5075747;28;20653;-34
2023/05/24 04:08:58;;;;;;;0.50;0.50;;;20.40;66.10;;;20.55;50.27;94969.16;5074133;28;20205;-34
2023/05/24 04:11:28;;;;;;;0.40;0.40;;;20.40;66.10;;;20.54;50.23;94973.69;5057431;28;20242;-34
2023/05/24 04:13:59;;;;;;;0.50;0.50;;;20.40;66.10;;;20.54;50.05;94972.88;5075021;28;20191;-34
2023/05/24 04:16:27;;;;;;;0.40;0.40;;;20.40;66.10;;;20.53;50.62;94973.94;5074399;28;20221;-34
2023/05/24 04:18:56;;;;;;;0.60;0.60;;;20.40;66.00;;;20.51;50.43;94976.03;5073766;28;20210;-34
2023/05/24 04:21:24;;;;;;;0.40;0.40;;;20.30;66.00;;;20.52;50.67;94978.47;5075517;28;20618;-34
2023/05/24 04:23:52;;;;;;;0.40;0.40;;;20.40;66.20;;;20.51;50.36;94979.53;5074209;28;20290;-34
2023/05/24 04:26:20;;;;;;;0.40;0.40;;;20.30;66.00;;;20.51;50.51;94990.19;5074677;28;20183;-34
2023/05/24 04:28:47;;;;;;;0.52;0.52;;;20.30;66.10;;;20.50;50.44;94980.59;5073734;28;20234;-34
2023/05/24 04:31:15;;;;;;;0.40;0.40;;;20.30;66.00;;;20.48;50.35;94986.16;5057396;28;20514;-34
2023/05/24 04:33:42;;;;;;;0.40;0.40;;;20.30;66.00;;;20.49;50.28;94981.63;5073908;28;20201;-34
2023/05/24 04:36:10;;;;;;;0.40;0.40;;;20.30;66.10;;;20.45;50.10;94983.22;5073832;28;20711;-34
2023/05/24 04:38:39;;;;;;;0.40;0.40;;;20.30;66.00;;;20.45;50.07;94983.22;5073596;28;20220;-34
2023/05/24 04:41:06;;;;;;;0.50;0.50;;;20.30;66.00;;;20.44;50.71;94986.91;5075316;28;20540;-34
2023/05/24 04:43:34;;;;;;;0.40;0.40;;;20.30;66.00;;;20.42;50.62;94989.84;5074695;28;20201;-34
2023/05/24 04:46:01;;;;;;;0.50;0.50;;;20.30;66.00;;;20.42;50.29;94989.84;5074646;28;20602;-34
2023/05/24 04:48:29;;;;;;;0.50;0.50;;;20.30;66.30;;;20.42;50.47;94989.03;5073626;28;20277;-34
2023/05/24 04:50:57;;;;;;;0.40;0.40;;;20.20;65.90;;;20.40;50.27;94988.50;5074663;28;20189;-34
2023/05/24 04:53:24;;;;;;;0.45;0.45;;;20.30;66.10;;;20.39;50.61;94995.66;5074661;28;20255;-34
2023/05/24 04:55:52;;;;;;;0.50;0.50;;;20.30;66.10;;;20.38;50.59;94983.41;5074842;28;20198;-34
2023/05/24 04:58:19;;;;;;;0.45;0.45;;;20.20;66.00;;;20.37;50.16;94988.97;5074538;28;20254;-34
2023/05/24 05:00:46;;;;;;;0.40;0.40;;;20.30;66.10;;;20.37;50.69;94992.44;5074599;28;20218;-34
2023/05/24 05:03:13;;;;;;;0.40;0.40;;;20.20;66.00;;;20.38;50.59;94996.72;5074490;28;20234;-34
2023/05/24 05:05:40;;;;;;;0.52;0.52;;;20.30;66.20;;;20.38;50.20;94988.72;5074528;28;20194;-34
2023/05/24 05:08:07;;;;;;;0.60;0.60;;;20.20;66.10;;;20.40;50.37;94985.81;5074740;28;20286;-34
2023/05/24 05:10:35;;;;;;;0.50;0.50;;;20.30;66.10;;;20.40;50.79;94988.50;5074310;28;20228;-34
2023/05/24 05:13:03;;;;;;;0.50;0.50;;;20.30;66.10;;;20.39;50.25;94990.34;5074260;28;20226;-34
2023/05/24 05:15:31;;;;;;;0.45;0.45;;;20.20;66.10;;;20.38;50.50;94990.59;5074707;28;20217;-34
2023/05/24 05:17:59;;;;;;;0.63;0.63;;;20.30;66.10;;;20.38;50.12;94986.06;5074918;28;20224;-34
2023/05/24 05:20:26;;;;;;;0.50;0.50;;;20.20;65.90;;;20.36;50.59;94990.84;5074271;28;20505;-34
2023/05/24 05:22:53;;;;;;;0.50;0.50;;;20.20;66.00;;;20.38;50.29;94993.25;5074957;28;20232;-34
2023/05/24 05:25:20;;;;;;;0.40;0.40;;;20.20;66.00;;;20.36;50.63;94990.84;5074421;28;20222;-34
2023/05/24 05:27:47;;;;;;;0.40;0.40;;;20.30;66.10;;;20.35;50.64;94986.56;5074736;28;20194;-33
2023/05/24 05:30:14;;;;;;;0.47;0.47;;;20.20;66.00;;;20.33;50.21;94986.00;5074327;28;20232;-34
2023/05/24 05:32:41;;;;;;;0.50;0.50;;;20.20;66.00;;;20.32;50.44;94987.06;5074551;28;20201;-34
2023/05/24 05:35:09;;;;;;;0.50;0.50;;;20.20;66.00;;;20.31;50.32;94990.78;5074494;28;20199;-34
2023/05/24 05:37:36;;;;;;;0.50;0.50;;;20.20;66.00;;;20.29;50.65;94991.03;5074180;28;20190;-34
2023/05/24 05:40:03;;;;;;;0.40;0.40;;;20.20;66.50;;;20.29;50.51;94991.03;5077160;28;20269;-34
2023/05/24 05:42:30;;;;;;;0.47;0.47;;;20.20;66.10;;;20.30;50.86;94997.19;5078052;28;20268;-34
2023/05/24 05:44:57;;;;;;;0.40;0.40;;;20.20;66.00;;;20.30;50.35;94997.19;5078031;28;20211;-34
2023/05/24 05:47:24;;;;;;;0.50;0.50;;;20.20;66.00;;;20.30;50.31;94991.84;5077622;28;20285;-34
2023/05/24 05:49:51;;;;;;;0.40;0.40;;;20.20;66.00;;;20.30;50.36;94997.97;5077432;28;20203;-34
2023/05/24 05:52:18;;;;;;;0.40;0.40;;;20.20;66.00;;;20.30;50.32;94997.97;5077597;28;20277;-34
2023/05/24 05:54:46;;;;;;;0.40;0.40;;;20.20;66.10;;;20.30;50.25;95000.66;5077809;28;20202;-33
2023/05/24 05:57:15;;;;;;;0.50;0.50;;;20.20;66.10;;;20.31;50.71;95002.25;5077491;28;20194;-34
2023/05/24 05:59:42;;;;;;;0.40;0.40;;;20.20;67.00;;;20.31;50.23;95004.91;5077162;28;20226;-34
2023/05/24 06:02:11;;;;;;;0.40;0.40;;;20.20;66.10;;;20.32;50.57;94992.41;5077396;28;20194;-34
2023/05/24 06:04:38;;;;;;;0.52;0.52;;;20.20;66.10;;;20.34;50.28;94998.28;5077334;28;20285;-34
2023/05/24 06:07:05;;;;;;;0.40;0.40;;;20.20;66.10;;;;;;5077304;28;20191;-34
2023/05/24 06:09:32;;;;;;;0.40;0.40;;;20.20;66.10;;;20.33;49.97;94998.53;5077468;28;20211;-34
2023/05/24 06:12:00;;;;;;;0.40;0.40;;;20.20;66.00;;;20.31;50.27;94998.78;5077024;28;20243;-34
2023/05/24 06:14:27;;;;;;;0.40;0.40;;;20.20;66.90;;;20.30;50.43;95003.31;5076946;28;20195;-34
2023/05/24 06:16:54;;;;;;;0.50;0.50;;;20.20;66.00;;;20.30;50.46;94999.84;5077106;28;20194;-34
2023/05/24 06:19:23;;;;;;;0.50;0.50;;;20.20;66.00;;;20.27;50.15;94998.47;5077197;28;20302;-33
2023/05/24 06:21:50;;;;;;;0.47;0.47;;;20.20;66.00;;;20.29;50.55;95007.03;5076823;28;20191;-34
2023/05/24 06:24:19;;;;;;;0.50;0.50;;;20.20;66.10;;;20.30;50.74;95002.50;5076957;28;20187;-34
2023/05/24 06:26:47;;;;;;;0.45;0.45;;;20.20;66.00;;;20.28;50.35;95001.94;5076928;28;20194;-34
2023/05/24 06:29:14;;;;;;;0.40;0.40;;;20.20;66.00;;;20.27;50.22;95008.34;5076691;28;20197;-34
2023/05/24 06:31:42;;;;;;;0.43;0.43;;;20.20;65.90;;;20.26;50.38;95012.88;5076836;28;20256;-34
2023/05/24 06:34:09;;;;;;;0.43;0.43;;;20.20;65.80;;;20.24;50.59;95006.97;5077096;28;20273;-34
2023/05/24 06:36:41;;;;;;;0.52;0.52;;;20.20;65.90;;;20.23;50.10;95013.34;5076707;28;20201;-34
2023/05/24 06:39:12;;;;;;;0.45;0.45;;;20.10;65.80;;;20.22;50.53;95018.94;5077026;28;20223;-34
2023/05/24 06:41:39;;;;;;;0.50;0.50;;;20.10;65.90;;;20.23;50.15;95013.34;5076679;28;20183;-34
2023/05/24 06:44:07;;;;;;;0.40;0.40;;;20.20;65.90;;;20.24;50.47;95022.16;5076811;28;20186;-34
2023/05/24 06:46:34;;;;;;;0.40;0.40;;;20.20;66.00;;;20.23;50.34;95024.00;5076834;28;20194;-34
2023/05/24 06:49:02;;;;;;;0.45;0.45;;;20.10;66.00;;;20.25;50.68;95026.41;5076450;28;20194;-34
2023/05/24 06:51:32;;;;;;;0.50;0.50;;;20.10;66.90;;;20.25;50.49;95032.56;5076251;28;20205;-34
2023/05/24 06:53:59;;;;;;;0.60;0.60;;;20.20;65.90;;;20.24;50.07;95028.28;5076491;28;20630;-34
2023/05/24 06:56:27;;;;;;;0.50;0.50;;;20.20;65.80;;;20.22;50.15;95032.25;5075470;28;20202;-34
2023/05/24 06:58:55;;;;;;;0.43;0.43;;;20.20;65.70;;;20.21;49.96;95043.94;5076195;28;20242;-34
2023/05/24 07:01:23;;;;;;;0.50;0.50;;;20.20;65.70;;;20.20;49.93;95045.00;5076115;28;20231;-34
2023/05/24 07:03:50;;;;;;;0.50;0.50;;;20.10;65.70;;;20.19;50.28;95046.06;5075995;28;20228;-34
2023/05/24 07:06:17;;;;;;;0.40;0.40;;;20.10;65.60;;;20.18;49.98;95049.75;5076683;28;20224;-34
2023/05/24 07:08:44;;;;;;;0.60;0.60;;;20.10;65.70;;;20.17;50.09;95042.84;5076084;28;20203;-34
2023/05/24 07:11:11;;;;;;;0.40;0.40;;;20.10;65.70;;;20.16;50.43;95050.03;5076147;28;20233;-34
2023/05/24 07:13:38;;;;;;;0.43;0.43;;;20.10;65.70;;;20.14;50.10;95052.94;5074969;28;20231;-34
2023/05/24 07:16:06;;;;;;;0.50;0.50;;;20.10;65.50;;;20.12;49.82;95054.25;5076454;28;20524;-34
2023/05/24 07:18:33;;;;;;;0.45;0.45;;;20.10;65.50;;;20.13;50.15;95056.66;5076061;28;20224;-34
2023/05/24 07:21:00;;;;;;;0.40;0.40;;;20.10;65.60;;;20.12;49.87;95056.91;5075739;28;20234;-34
2023/05/24 07:23:27;;;;;;;0.40;0.40;;;20.00;65.50;;;20.12;50.12;95055.03;5076306;28;20289;-34
2023/05/24 07:25:54;;;;;;;0.40;0.40;;;20.00;65.50;;;20.12;49.85;95054.25;5076290;28;20289;-34
2023/05/24 07:28:21;;;;;;;0.40;0.40;;;20.10;65.70;;;20.11;50.37;95055.28;5075639;28;20194;-34
2023/05/24 07:30:48;;;;;;;0.40;0.40;;;20.00;65.60;;;20.13;49.93;95061.19;5075473;28;20210;-34
2023/05/24 07:33:16;;;;;;;0.47;0.47;;;20.00;65.60;;;20.15;49.72;95056.41;5075509;28;20635;-34
2023/05/24 07:35:44;;;;;;;0.40;0.40;;;20.00;65.60;;;20.16;49.87;95060.69;5075017;28;20633;-34
2023/05/24 07:38:11;;;;;;;0.50;0.50;;;20.00;65.60;;;20.15;50.02;95054.56;5075463;28;20194;-34
2023/05/24 07:40:38;;;;;;;0.50;0.50;;;20.00;65.60;;;20.15;50.15;95062.53;5075296;28;20199;-34
2023/05/24 07:43:06;;;;;;;0.40;0.40;;;20.00;65.60;;;20.13;49.98;95054.00;5075442;28;20197;-34
2023/05/24 07:45:33;;;;;;;0.50;0.50;;;20.00;65.60;;;20.17;50.01;95059.63;5075348;28;20225;-34
2023/05/24 07:48:00;;;;;;;0.47;0.47;;;20.10;65.70;;;20.20;49.88;95058.31;5075583;28;20198;-34
2023/05/24 07:50:28;;;;;;;0.40;0.40;;;20.10;65.70;;;20.19;49.85;95062.84;5075124;28;20195;-34
2023/05/24 07:52:58;;;;;;;0.50;0.50;;;20.10;65.70;;;20.19;49.74;95068.19;5075277;28;20202;-34
2023/05/24 07:55:26;;;;;;;0.47;0.47;;;20.10;65.60;;;20.20;50.06;95058.31;5075437;28;20214;-34
2023/05/24 07:57:53;;;;;;;0.50;0.50;;;20.10;65.60;;;20.19;50.36;95064.69;5075245;28;20193;-34
2023/05/24 08:00:21;;;;;;;0.50;0.50;;;20.10;65.70;;;20.20;50.17;95067.13;5074875;28;20272;-34
2023/05/24 08:02:49;;;;;;;0.50;0.50;;;20.10;65.70;;;20.20;50.19;95060.97;5074507;28;20625;-34
2023/05/24 08:05:16;;;;;;;0.40;0.40;;;20.10;65.60;;;20.21;49.63;95059.94;5075215;28;20244;-33
2023/05/24 08:07:44;;;;;;;0.55;0.55;;;20.10;65.60;;;20.22;49.66;95061.53;5075153;28;20205;-33
2023/05/24 08:10:12;;;;;;;0.50;0.50;;;20.00;65.60;;;20.20;49.96;95051.16;5075348;28;20287;-33
2023/05/24 08:12:40;;;;;;;0.50;0.50;;;20.10;65.70;;;20.22;49.93;95051.69;5074916;28;20241;-34
2023/05/24 08:15:09;;;;;;;0.40;0.40;;;20.10;65.80;;;20.22;50.16;95054.34;5075398;28;20219;-33
2023/05/24 08:17:40;;;;;;;0.40;0.40;;;20.10;65.80;;;20.23;50.22;95055.97;5075324;28;20263;-33
2023/05/24 08:20:15;;;;;;;0.47;0.47;;;20.10;65.90;;;20.25;49.80;95056.53;5074885;28;20214;-34
2023/05/24 08:22:43;;;;;;;0.45;0.45;;;20.10;65.80;;;20.25;49.99;95061.84;5075306;28;20247;-33
2023/05/24 08:25:10;;;;;;;0.40;0.40;;;20.10;65.80;;;20.25;50.14;95061.84;5074903;28;20190;-33
2023/05/24 08:27:37;;;;;;;0.40;0.40;;;20.10;65.70;;;20.25;49.95;95069.84;5074914;28;20186;-33
2023/05/24 08:30:07;;;;;;;0.40;0.40;;;20.10;65.70;;;20.25;49.81;95077.84;5074982;28;20232;-33
2023/05/24 08:32:35;;;;;;;0.50;0.50;;;20.10;65.70;;;20.25;50.22;95071.69;5074892;28;20195;-33
2023/05/24 08:35:02;;;;;;;0.40;0.40;;;20.10;66.50;;;20.23;49.84;95082.59;5075143;28;20244;-33
2023/05/24 08:37:46;;;;;;;0.40;0.40;;;20.20;65.60;;;20.23;49.95;95081.81;5075090;28;20191;-34
2023/05/24 08:40:14;;;;;;;0.45;0.45;;;20.10;65.60;;;20.23;50.45;95082.59;5074498;28;20293;-34
2023/05/24 08:42:42;;;;;;;0.47;0.47;;;20.20;65.70;;;20.23;50.01;95085.25;5074904;28;20252;-34
2023/05/24 08:45:12;;;;;;;0.60;0.60;;;20.20;65.80;;;20.25;49.80;95085.00;5075079;28;20281;-34
2023/05/24 08:47:39;;;;;;;0.50;0.50;;;20.10;65.70;;;20.25;49.96;95077.00;5075070;28;20567;-33
2023/05/24 08:50:07;;;;;;;0.45;0.45;;;20.20;65.80;;;20.27;49.89;95082.91;5074560;28;20194;-33
2023/05/24 08:52:35;;;;;;;0.40;0.40;;;20.20;65.80;;;20.29;50.44;95083.47;5074633;28;20730;-33
2023/05/24 08:55:04;;;;;;;0.60;0.60;;;20.20;65.80;;;20.30;50.30;95085.09;5074582;28;20528;-34
2023/05/24 08:57:33;;;;;;;0.52;0.52;;;20.10;65.70;;;20.31;50.32;95081.34;5074807;28;20190;-33
2023/05/24 09:00:01;;;;;;;0.50;0.50;;;20.10;65.70;;;20.32;50.26;95085.63;5074828;28;20241;-34
2023/05/24 09:02:30;;;;;;;0.50;0.50;;;20.10;65.70;;;20.33;49.88;95089.91;5074453;28;20198;-34
2023/05/24 09:04:59;;;;;;;0.52;0.52;;;20.20;65.80;;;20.34;49.84;95096.84;5073716;28;20188;-34
2023/05/24 09:07:27;;;;;;;0.50;0.50;;;20.20;65.70;;;;;;5073672;28;20202;-33
2023/05/24 09:10:06;;;;;;;0.47;0.47;;;20.20;65.60;;;20.35;49.84;95101.13;5074918;28;20206;-34
2023/05/24 09:12:37;;;;;;;0.50;0.50;;;20.20;65.70;;;20.34;50.14;95096.06;5074993;28;20238;-33
2023/05/24 09:15:07;;;;;;;0.47;0.47;;;20.20;65.70;;;;;;5077743;28;20222;-34
2023/05/24 09:17:36;;;;;;;0.40;0.40;;;20.30;65.70;;;20.36;49.47;95100.06;5078278;28;20222;-34
2023/05/24 09:20:09;;;;;;;0.30;0.30;;;20.20;65.70;;;20.38;49.74;95095.28;5078430;28;20227;-33
2023/05/24 09:22:37;;;;;;;0.40;0.40;;;20.20;65.70;;;20.40;50.39;95101.19;5078079;28;20195;-33
2023/05/24 09:25:10;;;;;;;0.50;0.50;;;20.20;65.70;;;20.42;50.08;95100.91;5061283;28;20217;-33
2023/05/24 09:27:37;;;;;;;0.35;0.35;;;20.20;65.60;;;20.43;50.26;95102.53;5077216;28;20197;-33
2023/05/24 09:30:09;;;;;;;0.47;0.47;;;20.20;65.60;;;20.43;50.17;95100.69;5078355;28;20643;-33
2023/05/24 09:32:37;;;;;;;0.40;0.40;;;20.30;65.60;;;20.44;49.64;95104.16;5077932;28;20187;-33
2023/05/24 09:35:08;;;;;;;0.40;0.40;;;20.30;65.70;;;20.47;50.15;95101.00;5078325;28;20533;-33
2023/05/24 09:37:37;;;;;;;0.40;0.40;;;20.30;65.70;;;20.49;50.33;95104.19;5077041;28;20252;-33
2023/05/24 09:40:07;;;;;;;0.30;0.30;;;20.30;65.70;;;20.51;50.16;95102.09;5077751;28;20299;-33
2023/05/24 09:42:34;;;;;;;0.40;0.40;;;20.40;65.70;;;20.51;49.69;95102.09;5078169;28;20581;-34
2023/05/24 09:45:08;;;;;;;0.40;0.40;;;20.40;65.70;;;20.51;50.01;95095.94;5077864;28;20218;-33
2023/05/24 09:47:39;;;;;;;0.50;0.50;;;20.40;65.60;;;20.54;49.57;95108.78;5077898;28;20197;-34
2023/05/24 09:50:18;;;;;;;0.40;0.40;;;20.40;65.60;;;20.53;49.58;95112.50;5078014;28;20222;-33
2023/05/24 09:52:46;;;;;;;0.40;0.40;;;20.40;65.50;;;20.54;50.07;95112.25;5077527;28;20179;-33
2023/05/24 09:55:19;;;;;;;0.40;0.40;;;20.40;65.50;;;20.56;49.71;95117.34;5077861;28;20214;-33
2023/05/24 09:58:01;;;;;;;0.40;0.40;;;20.40;65.50;;;20.56;49.62;95112.00;5076979;28;20664;-34
2023/05/24 10:00:34;;;;;;;0.40;0.40;;;20.40;65.60;;;20.57;49.76;95114.41;5077439;28;20622;-33
2023/05/24 10:03:03;;;;;;;0.40;0.40;;;20.40;65.50;;;20.58;50.03;95108.03;5076872;28;20191;-33
2023/05/24 10:05:30;;;;;;;0.40;0.40;;;20.40;65.50;;;20.60;49.57;95111.28;5060036;28;20229;-33
2023/05/24 10:07:58;;;;;;;0.45;0.45;;;20.40;65.50;;;20.62;49.86;95108.34;5077540;28;20625;-34
2023/05/24 10:10:29;;;;;;;0.40;0.40;;;20.40;65.50;;;20.64;49.99;95104.38;5077312;28;20191;-34
2023/05/24 10:12:57;;;;;;;0.50;0.50;;;20.50;65.50;;;20.64;49.88;95107.03;5076949;28;20235;-34
2023/05/24 10:15:26;;;;;;;0.40;0.40;;;20.50;65.50;;;20.65;49.96;95105.16;5077459;28;20537;-34
2023/05/24 10:17:55;;;;;;;0.45;0.45;;;20.50;65.50;;;20.68;49.67;95095.84;5077123;28;20276;-34
2023/05/24 10:20:23;;;;;;;0.45;0.45;;;20.50;65.40;;;20.68;49.56;95109.19;5077235;28;20249;-33
2023/05/24 10:23:02;;;;;;;0.40;0.40;;;20.50;65.30;;;20.67;49.44;95104.94;5076928;28;20722;-33
2023/05/24 10:25:34;;;;;;;0.40;0.40;;;20.50;65.20;;;20.67;49.54;95111.06;5059627;28;20226;-34
2023/05/24 10:28:09;;;;;;;0.43;0.43;;;20.60;65.30;;;20.69;49.54;95116.13;5077313;28;20269;-33
2023/05/24 10:31:04;;;;;;;0.40;0.40;;;20.50;65.20;;;20.66;49.73;95114.78;5076136;28;20609;-33